sensor_id;sensor_type;location;lat;lon;timestamp;P1;durP1;ratioP1;P2;durP2;ratioP2
18286;SDS011;9269;50.838;12.094;2023-08-07T00:00:39;1.00;;;1.00;;
18286;SDS011;9269;50.838;12.094;2023-08-07T00:03:08;1.63;;;1.20;;
18286;SDS011;9269;50.838;12.094;2023-08-07T00:05:38;1.70;;;1.00;;
18286;SDS011;9269;50.838;12.094;2023-08-07T00:08:07;1.03;;;1.00;;
18286;SDS011;9269;50.838;12.094;2023-08-07T00:10:36;1.00;;;0.97;;
18286;SDS011;9269;50.838;12.094;2023-08-07T00:13:04;1.27;;;1.17;;
18286;SDS011;9269;50.838;12.094;2023-08-07T00:15:33;1.10;;;1.10;;
18286;SDS011;9269;50.838;12.094;2023-08-07T00:18:01;1.30;;;1.20;;
18286;SDS011;9269;50.838;12.094;2023-08-07T00:20:30;1.10;;;1.10;;
18286;SDS011;9269;50.838;12.094;2023-08-07T00:22:58;1.43;;;1.20;;
18286;SDS011;9269;50.838;12.094;2023-08-07T00:25:28;1.40;;;1.30;;
18286;SDS011;9269;50.838;12.094;2023-08-07T00:27:57;1.30;;;1.20;;
18286;SDS011;9269;50.838;12.094;2023-08-07T00:30:25;1.30;;;1.20;;
18286;SDS011;9269;50.838;12.094;2023-08-07T00:32:54;1.23;;;1.20;;
18286;SDS011;9269;50.838;12.094;2023-08-07T00:35:22;1.30;;;1.20;;
18286;SDS011;9269;50.838;12.094;2023-08-07T00:37:51;2.10;;;1.40;;
18286;SDS011;9269;50.838;12.094;2023-08-07T00:40:19;1.40;;;1.27;;
18286;SDS011;9269;50.838;12.094;2023-08-07T00:42:49;1.33;;;1.23;;
18286;SDS011;9269;50.838;12.094;2023-08-07T00:45:17;1.43;;;1.33;;
18286;SDS011;9269;50.838;12.094;2023-08-07T00:47:46;2.47;;;1.60;;
18286;SDS011;9269;50.838;12.094;2023-08-07T00:50:14;1.63;;;1.40;;
18286;SDS011;9269;50.838;12.094;2023-08-07T00:52:43;1.57;;;1.40;;
18286;SDS011;9269;50.838;12.094;2023-08-07T00:55:12;1.47;;;1.37;;
18286;SDS011;9269;50.838;12.094;2023-08-07T00:57:40;1.80;;;1.50;;
18286;SDS011;9269;50.838;12.094;2023-08-07T01:00:11;1.90;;;1.57;;
18286;SDS011;9269;50.838;12.094;2023-08-07T01:02:41;1.37;;;1.27;;
18286;SDS011;9269;50.838;12.094;2023-08-07T01:05:10;1.30;;;1.20;;
18286;SDS011;9269;50.838;12.094;2023-08-07T01:07:39;1.50;;;1.40;;
18286;SDS011;9269;50.838;12.094;2023-08-07T01:10:07;1.60;;;1.30;;
18286;SDS011;9269;50.838;12.094;2023-08-07T01:12:40;1.30;;;1.20;;
18286;SDS011;9269;50.838;12.094;2023-08-07T01:15:17;1.30;;;1.20;;
18286;SDS011;9269;50.838;12.094;2023-08-07T01:17:50;1.50;;;1.30;;
18286;SDS011;9269;50.838;12.094;2023-08-07T01:20:21;1.20;;;1.10;;
18286;SDS011;9269;50.838;12.094;2023-08-07T01:22:51;1.30;;;1.30;;
18286;SDS011;9269;50.838;12.094;2023-08-07T01:25:20;1.20;;;1.17;;
18286;SDS011;9269;50.838;12.094;2023-08-07T01:27:50;1.40;;;1.30;;
18286;SDS011;9269;50.838;12.094;2023-08-07T01:30:24;1.10;;;1.10;;
18286;SDS011;9269;50.838;12.094;2023-08-07T01:32:59;1.43;;;1.20;;
18286;SDS011;9269;50.838;12.094;2023-08-07T01:35:39;1.30;;;1.20;;
18286;SDS011;9269;50.838;12.094;2023-08-07T01:38:12;1.47;;;1.37;;
18286;SDS011;9269;50.838;12.094;2023-08-07T01:40:42;1.00;;;1.00;;
18286;SDS011;9269;50.838;12.094;2023-08-07T01:43:11;1.20;;;1.20;;
18286;SDS011;9269;50.838;12.094;2023-08-07T01:45:40;1.20;;;1.17;;
18286;SDS011;9269;50.838;12.094;2023-08-07T01:48:08;1.67;;;1.10;;
18286;SDS011;9269;50.838;12.094;2023-08-07T01:50:38;1.40;;;1.30;;
18286;SDS011;9269;50.838;12.094;2023-08-07T01:53:06;1.00;;;1.00;;
18286;SDS011;9269;50.838;12.094;2023-08-07T01:55:36;1.43;;;1.27;;
18286;SDS011;9269;50.838;12.094;2023-08-07T01:58:05;1.00;;;0.97;;
18286;SDS011;9269;50.838;12.094;2023-08-07T02:00:33;1.60;;;1.50;;
18286;SDS011;9269;50.838;12.094;2023-08-07T02:03:02;1.47;;;1.37;;
18286;SDS011;9269;50.838;12.094;2023-08-07T02:05:30;1.43;;;1.33;;
18286;SDS011;9269;50.838;12.094;2023-08-07T02:07:59;2.40;;;1.50;;
18286;SDS011;9269;50.838;12.094;2023-08-07T02:10:27;1.63;;;1.50;;
18286;SDS011;9269;50.838;12.094;2023-08-07T02:12:58;1.50;;;1.40;;
18286;SDS011;9269;50.838;12.094;2023-08-07T02:15:27;1.47;;;1.37;;
18286;SDS011;9269;50.838;12.094;2023-08-07T02:17:56;1.67;;;1.57;;
18286;SDS011;9269;50.838;12.094;2023-08-07T02:20:31;1.83;;;1.60;;
18286;SDS011;9269;50.838;12.094;2023-08-07T02:23:00;1.60;;;1.50;;
18286;SDS011;9269;50.838;12.094;2023-08-07T02:25:29;1.70;;;1.60;;
18286;SDS011;9269;50.838;12.094;2023-08-07T02:27:59;2.10;;;1.87;;
18286;SDS011;9269;50.838;12.094;2023-08-07T02:30:27;2.00;;;1.80;;
18286;SDS011;9269;50.838;12.094;2023-08-07T02:32:55;1.80;;;1.70;;
18286;SDS011;9269;50.838;12.094;2023-08-07T02:35:24;1.90;;;1.80;;
18286;SDS011;9269;50.838;12.094;2023-08-07T02:37:52;1.70;;;1.60;;
18286;SDS011;9269;50.838;12.094;2023-08-07T02:40:21;2.07;;;1.93;;
18286;SDS011;9269;50.838;12.094;2023-08-07T02:42:49;2.20;;;2.10;;
18286;SDS011;9269;50.838;12.094;2023-08-07T02:45:19;2.63;;;2.00;;
18286;SDS011;9269;50.838;12.094;2023-08-07T02:47:48;2.07;;;1.87;;
18286;SDS011;9269;50.838;12.094;2023-08-07T02:50:16;2.23;;;2.03;;
18286;SDS011;9269;50.838;12.094;2023-08-07T02:52:45;2.87;;;2.30;;
18286;SDS011;9269;50.838;12.094;2023-08-07T02:55:13;2.70;;;1.90;;
18286;SDS011;9269;50.838;12.094;2023-08-07T02:57:42;2.60;;;2.20;;
18286;SDS011;9269;50.838;12.094;2023-08-07T03:00:11;2.40;;;1.80;;
18286;SDS011;9269;50.838;12.094;2023-08-07T03:02:41;2.27;;;2.00;;
18286;SDS011;9269;50.838;12.094;2023-08-07T03:05:10;2.13;;;1.93;;
18286;SDS011;9269;50.838;12.094;2023-08-07T03:07:38;2.23;;;2.03;;
18286;SDS011;9269;50.838;12.094;2023-08-07T03:10:07;2.30;;;2.10;;
18286;SDS011;9269;50.838;12.094;2023-08-07T03:12:36;4.17;;;2.10;;
18286;SDS011;9269;50.838;12.094;2023-08-07T03:15:05;1.97;;;1.87;;
18286;SDS011;9269;50.838;12.094;2023-08-07T03:17:35;2.30;;;2.10;;
18286;SDS011;9269;50.838;12.094;2023-08-07T03:20:05;2.00;;;1.80;;
18286;SDS011;9269;50.838;12.094;2023-08-07T03:22:34;2.10;;;1.83;;
18286;SDS011;9269;50.838;12.094;2023-08-07T03:25:03;2.07;;;1.80;;
18286;SDS011;9269;50.838;12.094;2023-08-07T03:27:32;1.90;;;1.50;;
18286;SDS011;9269;50.838;12.094;2023-08-07T03:30:01;1.93;;;1.67;;
18286;SDS011;9269;50.838;12.094;2023-08-07T03:32:30;1.97;;;1.60;;
18286;SDS011;9269;50.838;12.094;2023-08-07T03:34:58;2.50;;;1.73;;
18286;SDS011;9269;50.838;12.094;2023-08-07T03:37:28;1.77;;;1.57;;
18286;SDS011;9269;50.838;12.094;2023-08-07T03:39:57;1.73;;;1.40;;
18286;SDS011;9269;50.838;12.094;2023-08-07T03:42:25;1.60;;;1.50;;
18286;SDS011;9269;50.838;12.094;2023-08-07T03:44:54;2.23;;;1.23;;
18286;SDS011;9269;50.838;12.094;2023-08-07T03:47:23;1.40;;;1.30;;
18286;SDS011;9269;50.838;12.094;2023-08-07T03:49:51;1.50;;;1.40;;
18286;SDS011;9269;50.838;12.094;2023-08-07T03:52:20;1.67;;;1.10;;
18286;SDS011;9269;50.838;12.094;2023-08-07T03:54:50;1.70;;;1.20;;
18286;SDS011;9269;50.838;12.094;2023-08-07T03:57:18;1.43;;;1.33;;
18286;SDS011;9269;50.838;12.094;2023-08-07T03:59:47;1.77;;;1.30;;
18286;SDS011;9269;50.838;12.094;2023-08-07T04:02:16;1.33;;;1.23;;
18286;SDS011;9269;50.838;12.094;2023-08-07T04:04:44;1.87;;;1.27;;
18286;SDS011;9269;50.838;12.094;2023-08-07T04:07:13;1.50;;;1.40;;
18286;SDS011;9269;50.838;12.094;2023-08-07T04:09:41;1.07;;;1.07;;
18286;SDS011;9269;50.838;12.094;2023-08-07T04:12:11;1.93;;;1.30;;
18286;SDS011;9269;50.838;12.094;2023-08-07T04:14:40;1.90;;;1.60;;
18286;SDS011;9269;50.838;12.094;2023-08-07T04:17:08;1.47;;;1.20;;
18286;SDS011;9269;50.838;12.094;2023-08-07T04:19:38;1.33;;;1.23;;
18286;SDS011;9269;50.838;12.094;2023-08-07T04:22:06;1.57;;;1.47;;
18286;SDS011;9269;50.838;12.094;2023-08-07T04:24:35;1.40;;;1.30;;
18286;SDS011;9269;50.838;12.094;2023-08-07T04:27:04;2.33;;;1.50;;
18286;SDS011;9269;50.838;12.094;2023-08-07T04:29:34;1.57;;;1.47;;
18286;SDS011;9269;50.838;12.094;2023-08-07T04:32:03;1.80;;;1.23;;
18286;SDS011;9269;50.838;12.094;2023-08-07T04:34:32;1.23;;;1.20;;
18286;SDS011;9269;50.838;12.094;2023-08-07T04:37:01;1.63;;;1.40;;
18286;SDS011;9269;50.838;12.094;2023-08-07T04:39:30;1.20;;;1.10;;
18286;SDS011;9269;50.838;12.094;2023-08-07T04:41:59;1.33;;;1.23;;
18286;SDS011;9269;50.838;12.094;2023-08-07T04:44:27;1.00;;;1.00;;
18286;SDS011;9269;50.838;12.094;2023-08-07T04:46:58;2.50;;;1.20;;
18286;SDS011;9269;50.838;12.094;2023-08-07T04:49:29;1.40;;;1.23;;
18286;SDS011;9269;50.838;12.094;2023-08-07T04:52:02;2.00;;;1.30;;
18286;SDS011;9269;50.838;12.094;2023-08-07T04:54:50;1.10;;;1.10;;
18286;SDS011;9269;50.838;12.094;2023-08-07T04:57:21;1.10;;;1.10;;
18286;SDS011;9269;50.838;12.094;2023-08-07T04:59:51;1.23;;;1.13;;
18286;SDS011;9269;50.838;12.094;2023-08-07T05:02:24;1.47;;;1.37;;
18286;SDS011;9269;50.838;12.094;2023-08-07T05:04:54;1.40;;;1.30;;
18286;SDS011;9269;50.838;12.094;2023-08-07T05:07:23;1.43;;;1.13;;
18286;SDS011;9269;50.838;12.094;2023-08-07T05:09:55;1.30;;;1.20;;
18286;SDS011;9269;50.838;12.094;2023-08-07T05:12:30;1.53;;;1.30;;
18286;SDS011;9269;50.838;12.094;2023-08-07T05:15:01;1.50;;;1.40;;
18286;SDS011;9269;50.838;12.094;2023-08-07T05:17:36;1.37;;;1.27;;
18286;SDS011;9269;50.838;12.094;2023-08-07T05:20:07;1.20;;;1.10;;
18286;SDS011;9269;50.838;12.094;2023-08-07T05:22:39;1.70;;;1.40;;
18286;SDS011;9269;50.838;12.094;2023-08-07T05:25:11;1.70;;;1.20;;
18286;SDS011;9269;50.838;12.094;2023-08-07T05:27:44;1.00;;;1.00;;
18286;SDS011;9269;50.838;12.094;2023-08-07T05:30:15;1.00;;;1.00;;
18286;SDS011;9269;50.838;12.094;2023-08-07T05:32:48;1.53;;;1.43;;
18286;SDS011;9269;50.838;12.094;2023-08-07T05:35:22;1.83;;;1.30;;
18286;SDS011;9269;50.838;12.094;2023-08-07T05:38:02;1.80;;;1.20;;
18286;SDS011;9269;50.838;12.094;2023-08-07T05:40:33;1.40;;;1.20;;
18286;SDS011;9269;50.838;12.094;2023-08-07T05:43:07;1.30;;;1.07;;
18286;SDS011;9269;50.838;12.094;2023-08-07T05:45:38;1.50;;;1.10;;
18286;SDS011;9269;50.838;12.094;2023-08-07T05:48:13;1.20;;;1.10;;
18286;SDS011;9269;50.838;12.094;2023-08-07T05:50:47;2.03;;;1.20;;
18286;SDS011;9269;50.838;12.094;2023-08-07T05:53:17;1.40;;;1.03;;
18286;SDS011;9269;50.838;12.094;2023-08-07T05:55:47;1.83;;;1.10;;
18286;SDS011;9269;50.838;12.094;2023-08-07T05:58:18;0.97;;;0.97;;
18286;SDS011;9269;50.838;12.094;2023-08-07T06:00:47;2.10;;;1.20;;
18286;SDS011;9269;50.838;12.094;2023-08-07T06:03:19;1.63;;;1.10;;
18286;SDS011;9269;50.838;12.094;2023-08-07T06:05:48;1.13;;;1.13;;
18286;SDS011;9269;50.838;12.094;2023-08-07T06:08:21;1.10;;;1.00;;
18286;SDS011;9269;50.838;12.094;2023-08-07T06:10:57;1.50;;;1.40;;
18286;SDS011;9269;50.838;12.094;2023-08-07T06:13:34;1.83;;;1.53;;
18286;SDS011;9269;50.838;12.094;2023-08-07T06:16:04;4.27;;;3.90;;
18286;SDS011;9269;50.838;12.094;2023-08-07T06:18:39;2.97;;;2.67;;
18286;SDS011;9269;50.838;12.094;2023-08-07T06:21:10;4.30;;;2.93;;
18286;SDS011;9269;50.838;12.094;2023-08-07T06:23:41;3.97;;;3.57;;
18286;SDS011;9269;50.838;12.094;2023-08-07T06:26:11;5.63;;;3.37;;
18286;SDS011;9269;50.838;12.094;2023-08-07T06:28:42;3.27;;;2.70;;
18286;SDS011;9269;50.838;12.094;2023-08-07T06:31:14;2.63;;;2.40;;
18286;SDS011;9269;50.838;12.094;2023-08-07T06:33:51;2.63;;;2.10;;
18286;SDS011;9269;50.838;12.094;2023-08-07T06:36:24;2.13;;;1.93;;
18286;SDS011;9269;50.838;12.094;2023-08-07T06:38:55;1.67;;;1.57;;
18286;SDS011;9269;50.838;12.094;2023-08-07T06:41:25;1.73;;;1.40;;
18286;SDS011;9269;50.838;12.094;2023-08-07T06:43:59;1.03;;;0.90;;
18286;SDS011;9269;50.838;12.094;2023-08-07T06:46:33;1.10;;;1.10;;
18286;SDS011;9269;50.838;12.094;2023-08-07T06:49:05;1.43;;;1.33;;
18286;SDS011;9269;50.838;12.094;2023-08-07T06:51:37;2.07;;;1.33;;
18286;SDS011;9269;50.838;12.094;2023-08-07T06:54:08;3.40;;;1.43;;
18286;SDS011;9269;50.838;12.094;2023-08-07T06:56:38;1.07;;;0.97;;
18286;SDS011;9269;50.838;12.094;2023-08-07T06:59:11;3.43;;;1.40;;
18286;SDS011;9269;50.838;12.094;2023-08-07T07:01:41;4.20;;;1.30;;
18286;SDS011;9269;50.838;12.094;2023-08-07T07:04:12;1.23;;;1.13;;
18286;SDS011;9269;50.838;12.094;2023-08-07T07:06:43;1.33;;;1.20;;
18286;SDS011;9269;50.838;12.094;2023-08-07T07:09:14;3.27;;;1.40;;
18286;SDS011;9269;50.838;12.094;2023-08-07T07:11:45;1.43;;;1.33;;
18286;SDS011;9269;50.838;12.094;2023-08-07T07:14:18;1.30;;;1.20;;
18286;SDS011;9269;50.838;12.094;2023-08-07T07:16:51;2.03;;;1.07;;
18286;SDS011;9269;50.838;12.094;2023-08-07T07:19:28;1.07;;;1.00;;
18286;SDS011;9269;50.838;12.094;2023-08-07T07:22:05;1.37;;;1.03;;
18286;SDS011;9269;50.838;12.094;2023-08-07T07:24:37;1.53;;;1.37;;
18286;SDS011;9269;50.838;12.094;2023-08-07T07:27:11;1.03;;;0.83;;
18286;SDS011;9269;50.838;12.094;2023-08-07T07:29:41;1.00;;;1.00;;
18286;SDS011;9269;50.838;12.094;2023-08-07T07:32:14;0.90;;;0.90;;
18286;SDS011;9269;50.838;12.094;2023-08-07T07:34:46;1.00;;;1.00;;
18286;SDS011;9269;50.838;12.094;2023-08-07T07:37:17;1.00;;;0.90;;
18286;SDS011;9269;50.838;12.094;2023-08-07T07:39:48;1.10;;;1.10;;
18286;SDS011;9269;50.838;12.094;2023-08-07T07:42:27;5.43;;;3.10;;
18286;SDS011;9269;50.838;12.094;2023-08-07T07:45:02;2.10;;;1.87;;
18286;SDS011;9269;50.838;12.094;2023-08-07T07:47:35;2.13;;;1.93;;
18286;SDS011;9269;50.838;12.094;2023-08-07T07:50:08;1.77;;;1.40;;
18286;SDS011;9269;50.838;12.094;2023-08-07T07:52:44;4.23;;;2.10;;
18286;SDS011;9269;50.838;12.094;2023-08-07T07:55:19;1.53;;;1.43;;
18286;SDS011;9269;50.838;12.094;2023-08-07T07:57:50;1.20;;;1.10;;
18286;SDS011;9269;50.838;12.094;2023-08-07T08:00:21;1.70;;;1.03;;
18286;SDS011;9269;50.838;12.094;2023-08-07T08:02:56;0.90;;;0.90;;
18286;SDS011;9269;50.838;12.094;2023-08-07T08:05:30;1.13;;;0.90;;
18286;SDS011;9269;50.838;12.094;2023-08-07T08:08:03;0.80;;;0.80;;
18286;SDS011;9269;50.838;12.094;2023-08-07T08:10:35;0.80;;;0.80;;
18286;SDS011;9269;50.838;12.094;2023-08-07T08:13:08;0.80;;;0.80;;
18286;SDS011;9269;50.838;12.094;2023-08-07T08:15:43;1.50;;;1.10;;
18286;SDS011;9269;50.838;12.094;2023-08-07T08:18:15;1.30;;;1.20;;
18286;SDS011;9269;50.838;12.094;2023-08-07T08:20:47;1.37;;;1.27;;
18286;SDS011;9269;50.838;12.094;2023-08-07T08:23:16;1.43;;;1.33;;
18286;SDS011;9269;50.838;12.094;2023-08-07T08:25:51;1.50;;;1.40;;
18286;SDS011;9269;50.838;12.094;2023-08-07T08:28:28;1.17;;;1.07;;
18286;SDS011;9269;50.838;12.094;2023-08-07T08:31:04;2.20;;;1.30;;
18286;SDS011;9269;50.838;12.094;2023-08-07T08:33:37;1.50;;;1.40;;
18286;SDS011;9269;50.838;12.094;2023-08-07T08:36:20;2.00;;;1.33;;
18286;SDS011;9269;50.838;12.094;2023-08-07T08:38:52;2.57;;;1.30;;
18286;SDS011;9269;50.838;12.094;2023-08-07T08:41:23;2.20;;;1.50;;
18286;SDS011;9269;50.838;12.094;2023-08-07T08:43:54;1.10;;;1.10;;
18286;SDS011;9269;50.838;12.094;2023-08-07T16:38:16;3.40;;;2.10;;
18286;SDS011;9269;50.838;12.094;2023-08-07T16:40:45;3.10;;;2.40;;
18286;SDS011;9269;50.838;12.094;2023-08-07T16:43:13;4.03;;;2.17;;
18286;SDS011;9269;50.838;12.094;2023-08-07T16:45:43;4.23;;;2.30;;
18286;SDS011;9269;50.838;12.094;2023-08-07T16:48:11;3.47;;;2.13;;
18286;SDS011;9269;50.838;12.094;2023-08-07T16:50:40;5.00;;;2.40;;
18286;SDS011;9269;50.838;12.094;2023-08-07T16:53:19;5.70;;;2.83;;
18286;SDS011;9269;50.838;12.094;2023-08-07T16:55:48;4.83;;;2.50;;
18286;SDS011;9269;50.838;12.094;2023-08-07T16:58:16;3.47;;;2.47;;
18286;SDS011;9269;50.838;12.094;2023-08-07T17:00:45;4.43;;;2.57;;
18286;SDS011;9269;50.838;12.094;2023-08-07T17:03:13;3.37;;;2.30;;
18286;SDS011;9269;50.838;12.094;2023-08-07T17:05:42;3.43;;;2.50;;
18286;SDS011;9269;50.838;12.094;2023-08-07T17:08:10;2.50;;;2.10;;
18286;SDS011;9269;50.838;12.094;2023-08-07T17:10:40;6.73;;;3.27;;
18286;SDS011;9269;50.838;12.094;2023-08-07T17:13:09;4.00;;;2.80;;
18286;SDS011;9269;50.838;12.094;2023-08-07T17:15:37;4.00;;;2.67;;
18286;SDS011;9269;50.838;12.094;2023-08-07T17:18:06;3.40;;;2.63;;
18286;SDS011;9269;50.838;12.094;2023-08-07T17:20:35;6.47;;;2.50;;
18286;SDS011;9269;50.838;12.094;2023-08-07T17:23:04;7.30;;;2.57;;
18286;SDS011;9269;50.838;12.094;2023-08-07T17:25:32;3.57;;;2.17;;
18286;SDS011;9269;50.838;12.094;2023-08-07T17:28:02;6.00;;;2.30;;
18286;SDS011;9269;50.838;12.094;2023-08-07T17:30:31;3.13;;;2.47;;
18286;SDS011;9269;50.838;12.094;2023-08-07T17:33:00;3.43;;;2.10;;
18286;SDS011;9269;50.838;12.094;2023-08-07T17:35:29;4.60;;;2.20;;
18286;SDS011;9269;50.838;12.094;2023-08-07T17:37:57;2.97;;;2.13;;
18286;SDS011;9269;50.838;12.094;2023-08-07T17:40:26;2.47;;;2.20;;
18286;SDS011;9269;50.838;12.094;2023-08-07T17:42:55;3.80;;;2.13;;
18286;SDS011;9269;50.838;12.094;2023-08-07T17:45:25;2.83;;;2.30;;
18286;SDS011;9269;50.838;12.094;2023-08-07T17:47:53;4.10;;;2.40;;
18286;SDS011;9269;50.838;12.094;2023-08-07T17:50:22;5.13;;;2.63;;
18286;SDS011;9269;50.838;12.094;2023-08-07T17:52:53;3.00;;;2.60;;
18286;SDS011;9269;50.838;12.094;2023-08-07T17:55:22;3.57;;;2.27;;
18286;SDS011;9269;50.838;12.094;2023-08-07T17:58:09;2.80;;;2.43;;
18286;SDS011;9269;50.838;12.094;2023-08-07T18:00:39;4.07;;;2.63;;
18286;SDS011;9269;50.838;12.094;2023-08-07T18:03:07;4.70;;;2.37;;
18286;SDS011;9269;50.838;12.094;2023-08-07T18:05:38;3.57;;;2.50;;
18286;SDS011;9269;50.838;12.094;2023-08-07T18:08:06;4.40;;;2.20;;
18286;SDS011;9269;50.838;12.094;2023-08-07T18:10:35;5.10;;;2.60;;
18286;SDS011;9269;50.838;12.094;2023-08-07T18:13:04;4.37;;;2.37;;
18286;SDS011;9269;50.838;12.094;2023-08-07T18:15:32;4.73;;;2.47;;
18286;SDS011;9269;50.838;12.094;2023-08-07T18:18:02;3.13;;;2.20;;
18286;SDS011;9269;50.838;12.094;2023-08-07T18:20:32;3.00;;;1.80;;
18286;SDS011;9269;50.838;12.094;2023-08-07T18:23:00;3.50;;;2.30;;
18286;SDS011;9269;50.838;12.094;2023-08-07T18:25:30;3.00;;;2.13;;
18286;SDS011;9269;50.838;12.094;2023-08-07T18:32:05;4.10;;;2.23;;
18286;SDS011;9269;50.838;12.094;2023-08-07T18:34:36;2.97;;;2.17;;
18286;SDS011;9269;50.838;12.094;2023-08-07T18:37:05;5.03;;;2.40;;
18286;SDS011;9269;50.838;12.094;2023-08-07T18:39:33;5.37;;;2.23;;
18286;SDS011;9269;50.838;12.094;2023-08-07T18:42:02;2.43;;;2.10;;
18286;SDS011;9269;50.838;12.094;2023-08-07T18:44:31;3.50;;;2.27;;
18286;SDS011;9269;50.838;12.094;2023-08-07T18:47:01;3.10;;;2.80;;
18286;SDS011;9269;50.838;12.094;2023-08-07T18:49:29;3.43;;;2.30;;
18286;SDS011;9269;50.838;12.094;2023-08-07T18:51:59;2.57;;;2.37;;
18286;SDS011;9269;50.838;12.094;2023-08-07T18:54:31;4.33;;;2.37;;
18286;SDS011;9269;50.838;12.094;2023-08-07T18:56:59;2.53;;;2.23;;
18286;SDS011;9269;50.838;12.094;2023-08-07T18:59:32;5.50;;;2.63;;
18286;SDS011;9269;50.838;12.094;2023-08-07T19:02:01;3.60;;;2.60;;
18286;SDS011;9269;50.838;12.094;2023-08-07T19:04:30;3.87;;;2.50;;
18286;SDS011;9269;50.838;12.094;2023-08-07T19:06:59;3.47;;;2.43;;
18286;SDS011;9269;50.838;12.094;2023-08-07T19:09:29;4.43;;;2.60;;
18286;SDS011;9269;50.838;12.094;2023-08-07T19:11:58;3.43;;;2.60;;
18286;SDS011;9269;50.838;12.094;2023-08-07T19:14:28;4.30;;;2.43;;
18286;SDS011;9269;50.838;12.094;2023-08-07T19:16:57;3.20;;;2.50;;
18286;SDS011;9269;50.838;12.094;2023-08-07T19:19:26;4.13;;;2.60;;
18286;SDS011;9269;50.838;12.094;2023-08-07T19:21:56;6.10;;;2.60;;
18286;SDS011;9269;50.838;12.094;2023-08-07T19:24:26;3.57;;;2.73;;
18286;SDS011;9269;50.838;12.094;2023-08-07T19:26:55;2.97;;;2.33;;
18286;SDS011;9269;50.838;12.094;2023-08-07T19:29:24;2.57;;;2.33;;
18286;SDS011;9269;50.838;12.094;2023-08-07T19:31:53;4.17;;;2.83;;
18286;SDS011;9269;50.838;12.094;2023-08-07T19:34:21;3.40;;;2.67;;
18286;SDS011;9269;50.838;12.094;2023-08-07T19:36:52;2.83;;;2.50;;
18286;SDS011;9269;50.838;12.094;2023-08-07T19:39:20;3.77;;;2.50;;
18286;SDS011;9269;50.838;12.094;2023-08-07T19:41:51;3.37;;;2.10;;
18286;SDS011;9269;50.838;12.094;2023-08-07T19:44:20;2.67;;;2.40;;
18286;SDS011;9269;50.838;12.094;2023-08-07T19:46:49;4.17;;;2.43;;
18286;SDS011;9269;50.838;12.094;2023-08-07T19:49:17;3.37;;;2.30;;
18286;SDS011;9269;50.838;12.094;2023-08-07T19:51:46;3.40;;;2.10;;
18286;SDS011;9269;50.838;12.094;2023-08-07T19:54:15;4.77;;;2.20;;
18286;SDS011;9269;50.838;12.094;2023-08-07T19:56:43;3.40;;;2.10;;
18286;SDS011;9269;50.838;12.094;2023-08-07T19:59:13;3.43;;;2.13;;
18286;SDS011;9269;50.838;12.094;2023-08-07T20:01:42;3.40;;;2.33;;
18286;SDS011;9269;50.838;12.094;2023-08-07T20:04:10;2.10;;;1.90;;
18286;SDS011;9269;50.838;12.094;2023-08-07T20:06:40;2.40;;;2.10;;
18286;SDS011;9269;50.838;12.094;2023-08-07T20:09:09;4.33;;;2.20;;
18286;SDS011;9269;50.838;12.094;2023-08-07T20:11:37;3.50;;;2.37;;
18286;SDS011;9269;50.838;12.094;2023-08-07T20:14:06;3.57;;;2.47;;
18286;SDS011;9269;50.838;12.094;2023-08-07T20:16:36;3.80;;;2.57;;
18286;SDS011;9269;50.838;12.094;2023-08-07T20:19:04;3.27;;;2.10;;
18286;SDS011;9269;50.838;12.094;2023-08-07T20:21:34;3.20;;;2.33;;
18286;SDS011;9269;50.838;12.094;2023-08-07T20:24:02;2.70;;;2.13;;
18286;SDS011;9269;50.838;12.094;2023-08-07T20:26:31;3.23;;;2.30;;
18286;SDS011;9269;50.838;12.094;2023-08-07T20:29:02;3.60;;;2.27;;
18286;SDS011;9269;50.838;12.094;2023-08-07T20:31:31;4.70;;;2.00;;
18286;SDS011;9269;50.838;12.094;2023-08-07T20:34:01;3.27;;;2.10;;
18286;SDS011;9269;50.838;12.094;2023-08-07T20:36:30;3.70;;;2.40;;
18286;SDS011;9269;50.838;12.094;2023-08-07T20:38:59;2.97;;;2.07;;
18286;SDS011;9269;50.838;12.094;2023-08-07T20:41:28;5.33;;;2.30;;
18286;SDS011;9269;50.838;12.094;2023-08-07T20:43:57;4.10;;;2.47;;
18286;SDS011;9269;50.838;12.094;2023-08-07T20:46:25;3.57;;;1.97;;
18286;SDS011;9269;50.838;12.094;2023-08-07T20:48:53;3.43;;;2.60;;
18286;SDS011;9269;50.838;12.094;2023-08-07T20:51:23;2.93;;;2.13;;
18286;SDS011;9269;50.838;12.094;2023-08-07T20:53:52;2.70;;;2.43;;
18286;SDS011;9269;50.838;12.094;2023-08-07T20:56:20;2.77;;;2.20;;
18286;SDS011;9269;50.838;12.094;2023-08-07T20:58:49;3.20;;;2.20;;
18286;SDS011;9269;50.838;12.094;2023-08-07T21:01:17;3.53;;;2.40;;
18286;SDS011;9269;50.838;12.094;2023-08-07T21:03:46;3.30;;;2.43;;
18286;SDS011;9269;50.838;12.094;2023-08-07T21:06:15;2.90;;;2.10;;
18286;SDS011;9269;50.838;12.094;2023-08-07T21:08:45;2.50;;;2.17;;
18286;SDS011;9269;50.838;12.094;2023-08-07T21:11:14;2.80;;;2.20;;
18286;SDS011;9269;50.838;12.094;2023-08-07T21:13:43;4.30;;;2.43;;
18286;SDS011;9269;50.838;12.094;2023-08-07T21:16:11;3.47;;;2.10;;
18286;SDS011;9269;50.838;12.094;2023-08-07T21:18:40;2.57;;;2.07;;
18286;SDS011;9269;50.838;12.094;2023-08-07T21:21:09;5.03;;;2.50;;
18286;SDS011;9269;50.838;12.094;2023-08-07T21:23:37;3.63;;;2.47;;
18286;SDS011;9269;50.838;12.094;2023-08-07T21:26:07;4.13;;;2.20;;
18286;SDS011;9269;50.838;12.094;2023-08-07T21:28:35;2.63;;;2.40;;
18286;SDS011;9269;50.838;12.094;2023-08-07T21:31:04;3.33;;;2.43;;
18286;SDS011;9269;50.838;12.094;2023-08-07T21:33:33;3.63;;;2.30;;
18286;SDS011;9269;50.838;12.094;2023-08-07T21:36:02;4.00;;;2.80;;
18286;SDS011;9269;50.838;12.094;2023-08-07T21:38:31;4.40;;;2.40;;
18286;SDS011;9269;50.838;12.094;2023-08-07T21:41:00;3.80;;;2.40;;
18286;SDS011;9269;50.838;12.094;2023-08-07T21:43:30;3.67;;;2.43;;
18286;SDS011;9269;50.838;12.094;2023-08-07T21:45:58;3.13;;;2.70;;
18286;SDS011;9269;50.838;12.094;2023-08-07T21:48:26;2.87;;;2.40;;
18286;SDS011;9269;50.838;12.094;2023-08-07T21:50:55;2.97;;;2.30;;
18286;SDS011;9269;50.838;12.094;2023-08-07T21:53:24;3.33;;;2.50;;
18286;SDS011;9269;50.838;12.094;2023-08-07T21:55:53;3.73;;;2.70;;
18286;SDS011;9269;50.838;12.094;2023-08-07T21:58:21;3.17;;;2.73;;
18286;SDS011;9269;50.838;12.094;2023-08-07T22:00:51;3.20;;;2.33;;
18286;SDS011;9269;50.838;12.094;2023-08-07T22:03:20;2.73;;;2.17;;
18286;SDS011;9269;50.838;12.094;2023-08-07T22:05:49;3.43;;;2.47;;
18286;SDS011;9269;50.838;12.094;2023-08-07T22:08:19;2.47;;;2.27;;
18286;SDS011;9269;50.838;12.094;2023-08-07T22:10:48;2.97;;;2.10;;
18286;SDS011;9269;50.838;12.094;2023-08-07T22:13:18;4.87;;;2.30;;
18286;SDS011;9269;50.838;12.094;2023-08-07T22:15:47;3.93;;;2.20;;
18286;SDS011;9269;50.838;12.094;2023-08-07T22:18:18;2.90;;;2.27;;
18286;SDS011;9269;50.838;12.094;2023-08-07T22:20:47;3.57;;;2.13;;
18286;SDS011;9269;50.838;12.094;2023-08-07T22:23:16;4.43;;;2.63;;
18286;SDS011;9269;50.838;12.094;2023-08-07T22:25:45;4.07;;;2.23;;
18286;SDS011;9269;50.838;12.094;2023-08-07T22:28:14;4.13;;;2.40;;
18286;SDS011;9269;50.838;12.094;2023-08-07T22:30:43;3.97;;;2.47;;
18286;SDS011;9269;50.838;12.094;2023-08-07T22:33:12;4.67;;;2.83;;
18286;SDS011;9269;50.838;12.094;2023-08-07T22:35:43;2.63;;;2.43;;
18286;SDS011;9269;50.838;12.094;2023-08-07T22:38:12;3.90;;;2.80;;
18286;SDS011;9269;50.838;12.094;2023-08-07T22:40:40;3.13;;;2.50;;
18286;SDS011;9269;50.838;12.094;2023-08-07T22:43:09;3.43;;;2.30;;
18286;SDS011;9269;50.838;12.094;2023-08-07T22:45:38;5.13;;;2.70;;
18286;SDS011;9269;50.838;12.094;2023-08-07T22:48:07;3.97;;;2.60;;
18286;SDS011;9269;50.838;12.094;2023-08-07T22:50:36;3.57;;;2.40;;
18286;SDS011;9269;50.838;12.094;2023-08-07T22:53:06;3.30;;;2.50;;
18286;SDS011;9269;50.838;12.094;2023-08-07T22:55:34;3.80;;;2.50;;
18286;SDS011;9269;50.838;12.094;2023-08-07T22:58:03;3.63;;;2.50;;
18286;SDS011;9269;50.838;12.094;2023-08-07T23:00:31;4.27;;;2.77;;